Main page
METAR-TAF:

METAR-TAF

Airports :

Rijeka Airport

Rijeka, Croatia

latitude: 45-13N, longitude: 014-35E, elevation: 85 m

Current weather observation

The report was made 9 minutes ago, at 19:00 UTC
Wind 5 kt from variable directions
Temperature 6°C
Humidity 45%
Pressure 1016 hPa
Visibility 10 km or more
Scattered clouds at a height of 4700 ft

METAR: LDRI 181900Z VRB05KT 9999 SCT047 06/M05 Q1016

Time: 20:09 (19:09 UTC)

Forecast

The report was made 1 hour and 44 minutes ago, at 17:25 UTC
Forecast valid from 18 at 18 UTC to 19 at 18 UTC
Wind 8 kt from the East/Northeast
Visibility 10 km or more
Few clouds at a height of 4000 ft
Temporary
from 18 at 18 UTC to 19 at 06 UTC
Wind 8 kt from variable directions

TAF: LDRI 181725Z 1818/1918 06008KT 9999 FEW040 TX06/1818Z TN02/1905Z TEMPO 1818/1906 VRB08KT

Weather observations and forecasts of more than 4000 airports (METAR and TAF reports).

The available stations are represented by yellow and red dots on the map.

Hover mouse over dot to see the name of the station.

Then click to see weather observations and forecasts.

To change the map : click on the green buttons with a black cross to zoom in, on the green button with a dash to zoom out, or on the green arrows for adjacent maps.


METAR-TAF: